Terminal Aerodrome Forecast
Issued by NWS

Home | Current Version | Previous Version | Graphics & Text | Print | Product List | Glossary On
Versions: 1 2 3 4 5 6 7 8 9 10 11 12
000
FTUS43 KMPX 160520
TAFRWF
TAF
KRWF 160520Z 1606/1706 26007KT P6SM SKC
     FM161300 22007KT P6SM SKC
     FM161800 20014G22KT P6SM SKC
     FM162300 19011KT P6SM SKC=

USA.gov is the U.S. government's official web portal to all federal, state and local government web resources and services.